sensor_id;sensor_type;location;lat;lon;timestamp;pressure;altitude;pressure_sealevel;temperature;humidity
79138;BME280;68544;45.566;10.238;2023-08-06T00:01:11;98794.81;;;21.56;62.05
79138;BME280;68544;45.566;10.238;2023-08-06T00:03:37;98784.63;;;21.56;62.59
79138;BME280;68544;45.566;10.238;2023-08-06T00:06:04;98789.78;;;21.29;63.58
79138;BME280;68544;45.566;10.238;2023-08-06T00:08:30;98788.09;;;21.33;63.57
79138;BME280;68544;45.566;10.238;2023-08-06T00:10:55;98791.03;;;21.47;62.76
79138;BME280;68544;45.566;10.238;2023-08-06T00:13:21;98792.44;;;21.00;64.14
79138;BME280;68544;45.566;10.238;2023-08-06T00:15:46;98780.34;;;21.01;64.54
79138;BME280;68544;45.566;10.238;2023-08-06T00:18:12;98779.53;;;21.06;64.75
79138;BME280;68544;45.566;10.238;2023-08-06T00:20:40;98774.91;;;21.35;63.69
79138;BME280;68544;45.566;10.238;2023-08-06T00:23:07;98787.28;;;21.66;62.46
79138;BME280;68544;45.566;10.238;2023-08-06T00:25:32;98774.84;;;21.11;63.85
79138;BME280;68544;45.566;10.238;2023-08-06T00:27:58;98765.91;;;21.58;62.48
79138;BME280;68544;45.566;10.238;2023-08-06T00:30:23;98764.91;;;21.78;61.75
79138;BME280;68544;45.566;10.238;2023-08-06T00:32:48;98763.44;;;21.90;61.25
79138;BME280;68544;45.566;10.238;2023-08-06T00:35:14;98767.25;;;21.94;60.78
79138;BME280;68544;45.566;10.238;2023-08-06T00:37:39;98774.16;;;20.86;64.90
79138;BME280;68544;45.566;10.238;2023-08-06T00:40:06;98778.66;;;20.62;66.55
79138;BME280;68544;45.566;10.238;2023-08-06T00:42:32;98770.56;;;21.29;64.16
79138;BME280;68544;45.566;10.238;2023-08-06T00:45:00;98771.34;;;21.68;62.55
79138;BME280;68544;45.566;10.238;2023-08-06T00:47:25;98765.97;;;21.87;61.72
79138;BME280;68544;45.566;10.238;2023-08-06T00:49:51;98765.19;;;21.48;63.18
79138;BME280;68544;45.566;10.238;2023-08-06T00:52:16;98764.72;;;21.69;61.87
79138;BME280;68544;45.566;10.238;2023-08-06T00:54:42;98761.41;;;21.72;62.02
79138;BME280;68544;45.566;10.238;2023-08-06T00:57:09;98752.00;;;21.78;61.56
79138;BME280;68544;45.566;10.238;2023-08-06T00:59:34;98752.50;;;21.85;61.50
79138;BME280;68544;45.566;10.238;2023-08-06T01:02:00;98757.03;;;21.66;61.95
79138;BME280;68544;45.566;10.238;2023-08-06T01:04:26;98752.25;;;21.82;61.01
79138;BME280;68544;45.566;10.238;2023-08-06T01:07:29;98746.78;;;22.06;59.79
79138;BME280;68544;45.566;10.238;2023-08-06T01:13:18;98760.25;;;21.78;61.91
79138;BME280;68544;45.566;10.238;2023-08-06T01:15:50;98749.81;;;21.75;62.05
79138;BME280;68544;45.566;10.238;2023-08-06T01:18:17;98751.06;;;21.93;61.32
79138;BME280;68544;45.566;10.238;2023-08-06T01:20:42;98746.25;;;22.04;60.92
79138;BME280;68544;45.566;10.238;2023-08-06T01:23:07;98745.66;;;21.83;61.29
79138;BME280;68544;45.566;10.238;2023-08-06T01:25:46;98738.00;;;22.04;60.82
79138;BME280;68544;45.566;10.238;2023-08-06T01:28:30;98730.22;;;22.11;59.93
79138;BME280;68544;45.566;10.238;2023-08-06T01:31:01;98745.94;;;21.53;62.23
79138;BME280;68544;45.566;10.238;2023-08-06T01:33:28;98736.34;;;21.50;62.47
79138;BME280;68544;45.566;10.238;2023-08-06T01:35:57;98736.53;;;21.30;63.83
79138;BME280;68544;45.566;10.238;2023-08-06T01:38:24;98731.34;;;21.23;63.62
79138;BME280;68544;45.566;10.238;2023-08-06T01:40:50;98732.94;;;21.58;62.96
79138;BME280;68544;45.566;10.238;2023-08-06T01:43:15;98725.38;;;21.74;62.17
79138;BME280;68544;45.566;10.238;2023-08-06T01:45:40;98724.47;;;21.83;61.65
79138;BME280;68544;45.566;10.238;2023-08-06T01:48:06;98732.09;;;21.91;61.08
79138;BME280;68544;45.566;10.238;2023-08-06T01:50:31;98729.16;;;21.20;63.97
79138;BME280;68544;45.566;10.238;2023-08-06T01:52:57;98729.09;;;21.59;62.71
79138;BME280;68544;45.566;10.238;2023-08-06T01:55:22;98725.03;;;21.23;63.77
79138;BME280;68544;45.566;10.238;2023-08-06T01:57:47;98721.28;;;21.71;62.04
79138;BME280;68544;45.566;10.238;2023-08-06T02:00:13;98725.47;;;21.92;61.43
79138;BME280;68544;45.566;10.238;2023-08-06T02:02:38;98722.56;;;22.08;60.75
79138;BME280;68544;45.566;10.238;2023-08-06T02:05:06;98720.88;;;22.12;60.82
79138;BME280;68544;45.566;10.238;2023-08-06T02:07:31;98714.88;;;22.05;61.09
79138;BME280;68544;45.566;10.238;2023-08-06T02:09:56;98711.75;;;22.16;60.45
79138;BME280;68544;45.566;10.238;2023-08-06T02:12:22;98712.31;;;22.13;60.72
79138;BME280;68544;45.566;10.238;2023-08-06T02:14:47;98711.88;;;21.82;62.14
79138;BME280;68544;45.566;10.238;2023-08-06T02:17:12;98700.28;;;22.09;60.70
79138;BME280;68544;45.566;10.238;2023-08-06T02:19:38;98706.00;;;22.13;60.51
79138;BME280;68544;45.566;10.238;2023-08-06T02:22:03;98707.25;;;22.02;60.99
79138;BME280;68544;45.566;10.238;2023-08-06T02:24:29;98688.66;;;21.93;61.31
79138;BME280;68544;45.566;10.238;2023-08-06T02:26:54;98686.22;;;22.11;60.63
79138;BME280;68544;45.566;10.238;2023-08-06T02:29:21;98679.59;;;21.02;64.82
79138;BME280;68544;45.566;10.238;2023-08-06T02:31:46;98678.50;;;21.08;65.17
79138;BME280;68544;45.566;10.238;2023-08-06T02:34:12;98684.06;;;21.32;63.74
79138;BME280;68544;45.566;10.238;2023-08-06T02:36:37;98688.63;;;21.41;63.88
79138;BME280;68544;45.566;10.238;2023-08-06T02:39:02;98687.94;;;21.54;62.73
79138;BME280;68544;45.566;10.238;2023-08-06T02:41:28;98686.50;;;21.33;63.73
79138;BME280;68544;45.566;10.238;2023-08-06T02:43:53;98671.81;;;20.80;65.00
79138;BME280;68544;45.566;10.238;2023-08-06T02:46:18;98683.72;;;21.38;63.66
79138;BME280;68544;45.566;10.238;2023-08-06T02:48:43;98694.81;;;21.52;62.77
79138;BME280;68544;45.566;10.238;2023-08-06T02:51:09;98684.78;;;21.13;63.74
79138;BME280;68544;45.566;10.238;2023-08-06T02:53:34;98681.94;;;20.85;64.93
79138;BME280;68544;45.566;10.238;2023-08-06T02:55:59;98678.13;;;21.48;62.65
79138;BME280;68544;45.566;10.238;2023-08-06T02:58:25;98692.75;;;21.67;61.88
79138;BME280;68544;45.566;10.238;2023-08-06T03:01:04;98683.97;;;21.65;62.13
79138;BME280;68544;45.566;10.238;2023-08-06T03:03:31;98678.81;;;21.87;61.38
79138;BME280;68544;45.566;10.238;2023-08-06T03:05:56;98672.66;;;21.72;61.90
79138;BME280;68544;45.566;10.238;2023-08-06T03:08:21;98661.31;;;21.78;61.74
79138;BME280;68544;45.566;10.238;2023-08-06T03:10:48;98659.56;;;21.87;61.36
79138;BME280;68544;45.566;10.238;2023-08-06T03:13:14;98658.47;;;21.88;61.28
79138;BME280;68544;45.566;10.238;2023-08-06T03:15:40;98648.31;;;21.89;61.29
79138;BME280;68544;45.566;10.238;2023-08-06T03:18:05;98636.44;;;21.93;61.22
79138;BME280;68544;45.566;10.238;2023-08-06T03:20:32;98639.59;;;21.82;61.34
79138;BME280;68544;45.566;10.238;2023-08-06T03:22:57;98639.03;;;20.99;64.36
79138;BME280;68544;45.566;10.238;2023-08-06T03:25:23;98649.13;;;20.70;65.55
79138;BME280;68544;45.566;10.238;2023-08-06T03:27:48;98645.31;;;20.66;66.21
79138;BME280;68544;45.566;10.238;2023-08-06T03:30:14;98636.63;;;20.05;68.58
79138;BME280;68544;45.566;10.238;2023-08-06T03:32:39;98629.56;;;20.48;67.59
79138;BME280;68544;45.566;10.238;2023-08-06T03:35:05;98619.69;;;20.80;65.84
79138;BME280;68544;45.566;10.238;2023-08-06T03:37:30;98623.44;;;20.94;65.40
79138;BME280;68544;45.566;10.238;2023-08-06T03:39:56;98607.72;;;21.00;65.08
79138;BME280;68544;45.566;10.238;2023-08-06T03:42:21;98607.13;;;20.74;65.56
79138;BME280;68544;45.566;10.238;2023-08-06T03:44:46;98615.22;;;20.56;66.38
79138;BME280;68544;45.566;10.238;2023-08-06T03:47:12;98615.13;;;20.71;66.18
79138;BME280;68544;45.566;10.238;2023-08-06T03:49:38;98606.22;;;20.84;65.78
79138;BME280;68544;45.566;10.238;2023-08-06T03:52:04;98611.31;;;20.67;66.14
79138;BME280;68544;45.566;10.238;2023-08-06T03:54:29;98609.28;;;20.43;66.87
79138;BME280;68544;45.566;10.238;2023-08-06T03:56:55;98609.09;;;20.69;66.26
79138;BME280;68544;45.566;10.238;2023-08-06T03:59:20;98606.63;;;21.01;64.87
79138;BME280;68544;45.566;10.238;2023-08-06T04:01:46;98597.25;;;21.07;64.58
79138;BME280;68544;45.566;10.238;2023-08-06T04:04:11;98598.34;;;21.06;64.58
79138;BME280;68544;45.566;10.238;2023-08-06T04:06:36;98603.28;;;21.09;64.89
79138;BME280;68544;45.566;10.238;2023-08-06T04:09:02;98594.59;;;20.97;64.72
79138;BME280;68544;45.566;10.238;2023-08-06T04:11:28;98597.09;;;20.21;67.90
79138;BME280;68544;45.566;10.238;2023-08-06T04:13:53;98609.56;;;19.93;69.16
79138;BME280;68544;45.566;10.238;2023-08-06T04:16:20;98597.91;;;20.21;68.68
79138;BME280;68544;45.566;10.238;2023-08-06T04:18:46;98595.88;;;20.76;66.21
79138;BME280;68544;45.566;10.238;2023-08-06T04:21:11;98598.94;;;21.03;64.98
79138;BME280;68544;45.566;10.238;2023-08-06T04:23:37;98594.97;;;21.14;64.31
79138;BME280;68544;45.566;10.238;2023-08-06T04:26:02;98596.81;;;21.23;63.94
79138;BME280;68544;45.566;10.238;2023-08-06T04:28:28;98601.91;;;21.11;64.42
79138;BME280;68544;45.566;10.238;2023-08-06T04:30:53;98611.41;;;20.52;66.40
79138;BME280;68544;45.566;10.238;2023-08-06T04:33:20;98611.09;;;20.58;66.27
79138;BME280;68544;45.566;10.238;2023-08-06T04:35:45;98620.91;;;20.69;66.44
79138;BME280;68544;45.566;10.238;2023-08-06T04:38:10;98623.13;;;20.96;65.44
79138;BME280;68544;45.566;10.238;2023-08-06T04:40:36;98621.44;;;21.00;64.97
79138;BME280;68544;45.566;10.238;2023-08-06T04:43:02;98619.22;;;21.02;64.91
79138;BME280;68544;45.566;10.238;2023-08-06T04:45:27;98613.59;;;21.22;63.94
79138;BME280;68544;45.566;10.238;2023-08-06T04:47:52;98620.41;;;21.24;63.71
79138;BME280;68544;45.566;10.238;2023-08-06T04:50:19;98614.66;;;20.92;65.21
79138;BME280;68544;45.566;10.238;2023-08-06T04:52:45;98615.41;;;21.03;64.55
79138;BME280;68544;45.566;10.238;2023-08-06T04:55:10;98619.66;;;21.19;63.86
79138;BME280;68544;45.566;10.238;2023-08-06T04:57:35;98617.25;;;20.79;65.46
79138;BME280;68544;45.566;10.238;2023-08-06T05:00:01;98625.47;;;20.79;65.36
79138;BME280;68544;45.566;10.238;2023-08-06T05:02:26;98621.00;;;20.88;65.39
79138;BME280;68544;45.566;10.238;2023-08-06T05:04:52;98631.78;;;21.13;64.41
79138;BME280;68544;45.566;10.238;2023-08-06T05:07:17;98627.75;;;21.00;65.01
79138;BME280;68544;45.566;10.238;2023-08-06T05:09:42;98625.75;;;20.77;65.97
79138;BME280;68544;45.566;10.238;2023-08-06T05:12:08;98633.91;;;20.87;65.40
79138;BME280;68544;45.566;10.238;2023-08-06T05:14:34;98632.75;;;20.93;65.14
79138;BME280;68544;45.566;10.238;2023-08-06T05:16:59;98635.78;;;20.92;65.82
79138;BME280;68544;45.566;10.238;2023-08-06T05:19:24;98638.75;;;21.29;64.03
79138;BME280;68544;45.566;10.238;2023-08-06T05:21:50;98631.16;;;21.21;64.55
79138;BME280;68544;45.566;10.238;2023-08-06T05:24:15;98639.19;;;21.41;63.59
79138;BME280;68544;45.566;10.238;2023-08-06T05:26:41;98633.53;;;21.56;63.16
79138;BME280;68544;45.566;10.238;2023-08-06T05:29:06;98644.34;;;21.71;62.01
79138;BME280;68544;45.566;10.238;2023-08-06T05:31:31;98633.00;;;21.54;62.67
79138;BME280;68544;45.566;10.238;2023-08-06T05:33:57;98647.31;;;20.89;64.90
79138;BME280;68544;45.566;10.238;2023-08-06T05:36:22;98651.53;;;21.44;64.00
79138;BME280;68544;45.566;10.238;2023-08-06T05:38:47;98651.94;;;21.79;62.22
79138;BME280;68544;45.566;10.238;2023-08-06T05:41:13;98655.72;;;21.88;62.22
79138;BME280;68544;45.566;10.238;2023-08-06T05:43:38;98650.28;;;22.26;60.66
79138;BME280;68544;45.566;10.238;2023-08-06T05:46:04;98649.66;;;21.91;62.02
79138;BME280;68544;45.566;10.238;2023-08-06T05:48:29;98640.75;;;21.99;61.81
79138;BME280;68544;45.566;10.238;2023-08-06T05:50:55;98640.56;;;22.33;60.20
79138;BME280;68544;45.566;10.238;2023-08-06T05:53:20;98636.41;;;22.54;59.35
79138;BME280;68544;45.566;10.238;2023-08-06T05:55:47;98647.19;;;22.88;58.20
79138;BME280;68544;45.566;10.238;2023-08-06T05:58:12;98639.34;;;22.63;59.44
79138;BME280;68544;45.566;10.238;2023-08-06T06:00:37;98647.56;;;22.82;58.20
79138;BME280;68544;45.566;10.238;2023-08-06T06:03:03;98641.66;;;22.51;59.33
79138;BME280;68544;45.566;10.238;2023-08-06T06:05:28;98644.63;;;22.92;58.05
79138;BME280;68544;45.566;10.238;2023-08-06T06:07:54;98635.03;;;23.21;57.27
79138;BME280;68544;45.566;10.238;2023-08-06T06:10:19;98638.97;;;23.02;57.48
79138;BME280;68544;45.566;10.238;2023-08-06T06:12:44;98640.69;;;23.30;56.86
79138;BME280;68544;45.566;10.238;2023-08-06T06:15:10;98643.47;;;23.43;56.60
79138;BME280;68544;45.566;10.238;2023-08-06T06:17:35;98651.03;;;23.51;56.73
79138;BME280;68544;45.566;10.238;2023-08-06T06:20:01;98650.03;;;23.15;57.42
79138;BME280;68544;45.566;10.238;2023-08-06T06:22:29;98654.22;;;23.26;57.00
79138;BME280;68544;45.566;10.238;2023-08-06T06:24:54;98654.28;;;23.40;56.95
79138;BME280;68544;45.566;10.238;2023-08-06T06:27:20;98660.44;;;22.67;59.44
79138;BME280;68544;45.566;10.238;2023-08-06T06:29:45;98669.78;;;22.85;58.93
79138;BME280;68544;45.566;10.238;2023-08-06T06:32:11;98667.56;;;23.51;57.42
79138;BME280;68544;45.566;10.238;2023-08-06T06:34:36;98667.56;;;23.38;57.37
79138;BME280;68544;45.566;10.238;2023-08-06T06:37:01;98667.56;;;23.51;57.25
79138;BME280;68544;45.566;10.238;2023-08-06T06:39:27;98670.34;;;23.65;57.26
79138;BME280;68544;45.566;10.238;2023-08-06T06:41:52;98675.28;;;24.22;55.48
79138;BME280;68544;45.566;10.238;2023-08-06T06:44:17;98675.09;;;24.68;53.57
79138;BME280;68544;45.566;10.238;2023-08-06T06:46:45;98669.75;;;24.85;52.76
79138;BME280;68544;45.566;10.238;2023-08-06T06:49:10;98674.69;;;24.61;53.87
79138;BME280;68544;45.566;10.238;2023-08-06T06:51:36;98675.38;;;24.31;55.02
79138;BME280;68544;45.566;10.238;2023-08-06T06:54:01;98669.66;;;24.27;55.48
79138;BME280;68544;45.566;10.238;2023-08-06T06:56:26;98673.22;;;24.28;54.86
79138;BME280;68544;45.566;10.238;2023-08-06T06:58:52;98668.66;;;24.59;54.17
79138;BME280;68544;45.566;10.238;2023-08-06T07:01:17;98664.50;;;25.20;52.34
79138;BME280;68544;45.566;10.238;2023-08-06T07:03:43;98650.91;;;25.32;51.16
79138;BME280;68544;45.566;10.238;2023-08-06T07:06:08;98656.28;;;25.59;50.84
79138;BME280;68544;45.566;10.238;2023-08-06T07:08:33;98666.13;;;25.43;51.58
79138;BME280;68544;45.566;10.238;2023-08-06T07:10:59;98660.50;;;25.96;48.73
79138;BME280;68544;45.566;10.238;2023-08-06T07:13:26;98660.22;;;26.06;48.72
79138;BME280;68544;45.566;10.238;2023-08-06T07:15:51;98666.53;;;26.45;47.84
79138;BME280;68544;45.566;10.238;2023-08-06T07:18:17;98665.41;;;26.63;46.77
79138;BME280;68544;45.566;10.238;2023-08-06T07:20:47;98659.53;;;26.48;45.73
79138;BME280;68544;45.566;10.238;2023-08-06T07:23:12;98657.75;;;26.52;44.89
79138;BME280;68544;45.566;10.238;2023-08-06T07:25:38;98655.31;;;26.03;45.39
79138;BME280;68544;45.566;10.238;2023-08-06T07:28:03;98641.53;;;26.11;45.39
79138;BME280;68544;45.566;10.238;2023-08-06T07:30:28;98631.88;;;26.91;43.22
79138;BME280;68544;45.566;10.238;2023-08-06T07:32:54;98628.34;;;27.45;42.59
79138;BME280;68544;45.566;10.238;2023-08-06T07:35:19;98629.97;;;27.92;40.73
79138;BME280;68544;45.566;10.238;2023-08-06T07:37:45;98627.44;;;28.87;39.13
79138;BME280;68544;45.566;10.238;2023-08-06T07:40:10;98631.22;;;28.82;39.01
79138;BME280;68544;45.566;10.238;2023-08-06T07:42:36;98619.47;;;31.27;34.02
79138;BME280;68544;45.566;10.238;2023-08-06T07:45:01;98618.19;;;34.32;28.38
79138;BME280;68544;45.566;10.238;2023-08-06T07:47:26;98622.56;;;37.04;24.04
79138;BME280;68544;45.566;10.238;2023-08-06T07:49:52;98620.50;;;35.45;25.50
79138;BME280;68544;45.566;10.238;2023-08-06T07:52:18;98615.41;;;37.32;23.28
79138;BME280;68544;45.566;10.238;2023-08-06T07:54:43;98615.09;;;39.68;19.96
79138;BME280;68544;45.566;10.238;2023-08-06T07:57:08;98604.06;;;40.76;19.14
79138;BME280;68544;45.566;10.238;2023-08-06T07:59:34;98614.84;;;42.05;18.34
79138;BME280;68544;45.566;10.238;2023-08-06T08:02:00;98611.31;;;41.98;17.85
79138;BME280;68544;45.566;10.238;2023-08-06T08:04:25;98610.41;;;40.50;19.78
79138;BME280;68544;45.566;10.238;2023-08-06T08:06:51;98619.28;;;41.80;17.74
79138;BME280;68544;45.566;10.238;2023-08-06T08:09:16;98604.53;;;41.05;18.75
79138;BME280;68544;45.566;10.238;2023-08-06T08:11:42;98605.91;;;37.92;22.59
79138;BME280;68544;45.566;10.238;2023-08-06T08:14:07;98604.50;;;37.12;23.33
79138;BME280;68544;45.566;10.238;2023-08-06T08:16:33;98601.84;;;35.27;26.77
79138;BME280;68544;45.566;10.238;2023-08-06T08:18:58;98610.47;;;33.35;30.07
79138;BME280;68544;45.566;10.238;2023-08-06T08:21:24;98613.09;;;32.90;31.24
79138;BME280;68544;45.566;10.238;2023-08-06T08:23:52;98615.84;;;31.85;33.68
79138;BME280;68544;45.566;10.238;2023-08-06T08:26:18;98622.31;;;32.90;31.19
79138;BME280;68544;45.566;10.238;2023-08-06T08:28:43;98623.53;;;33.27;30.70
79138;BME280;68544;45.566;10.238;2023-08-06T08:31:09;98618.47;;;33.56;30.61
79138;BME280;68544;45.566;10.238;2023-08-06T08:33:35;98620.03;;;33.98;28.89
79138;BME280;68544;45.566;10.238;2023-08-06T08:36:00;98615.31;;;35.88;25.93
79138;BME280;68544;45.566;10.238;2023-08-06T08:38:26;98610.94;;;39.86;21.50
79138;BME280;68544;45.566;10.238;2023-08-06T08:40:52;98602.56;;;40.24;20.56
79138;BME280;68544;45.566;10.238;2023-08-06T08:43:21;98608.19;;;41.05;19.51
79138;BME280;68544;45.566;10.238;2023-08-06T08:45:50;98598.81;;;44.72;15.40
79138;BME280;68544;45.566;10.238;2023-08-06T08:48:16;98599.09;;;40.50;19.30
79138;BME280;68544;45.566;10.238;2023-08-06T08:50:44;98593.13;;;43.59;16.54
79138;BME280;68544;45.566;10.238;2023-08-06T08:53:11;98607.75;;;45.94;14.16
79138;BME280;68544;45.566;10.238;2023-08-06T08:55:38;98609.34;;;46.67;13.50
79138;BME280;68544;45.566;10.238;2023-08-06T08:58:03;98607.56;;;47.78;12.53
79138;BME280;68544;45.566;10.238;2023-08-06T09:00:29;98606.28;;;49.55;11.29
79138;BME280;68544;45.566;10.238;2023-08-06T09:02:55;98605.47;;;48.09;12.28
79138;BME280;68544;45.566;10.238;2023-08-06T09:05:22;98615.56;;;48.59;11.74
79138;BME280;68544;45.566;10.238;2023-08-06T09:07:48;98617.94;;;46.89;13.36
79138;BME280;68544;45.566;10.238;2023-08-06T09:10:16;98613.38;;;48.90;11.29
79138;BME280;68544;45.566;10.238;2023-08-06T09:12:43;98616.69;;;45.17;14.50
79138;BME280;68544;45.566;10.238;2023-08-06T09:15:10;98615.25;;;46.39;13.31
79138;BME280;68544;45.566;10.238;2023-08-06T09:17:36;98603.25;;;46.78;12.79
79138;BME280;68544;45.566;10.238;2023-08-06T09:20:14;98603.31;;;49.13;11.04
79138;BME280;68544;45.566;10.238;2023-08-06T09:22:40;98604.84;;;51.25;9.77
79138;BME280;68544;45.566;10.238;2023-08-06T09:25:07;98596.09;;;51.05;9.67
79138;BME280;68544;45.566;10.238;2023-08-06T09:27:36;98583.13;;;51.53;9.30
79138;BME280;68544;45.566;10.238;2023-08-06T09:30:02;98599.81;;;47.35;12.06
79138;BME280;68544;45.566;10.238;2023-08-06T09:32:47;98595.91;;;51.38;9.19
79138;BME280;68544;45.566;10.238;2023-08-06T09:35:17;98600.16;;;51.86;8.91
79138;BME280;68544;45.566;10.238;2023-08-06T09:37:43;98592.69;;;53.40;7.98
79138;BME280;68544;45.566;10.238;2023-08-06T09:40:25;98597.28;;;51.42;9.20
79138;BME280;68544;45.566;10.238;2023-08-06T09:42:51;98600.53;;;53.40;7.61
79138;BME280;68544;45.566;10.238;2023-08-06T09:45:17;98598.00;;;49.48;9.69
79138;BME280;68544;45.566;10.238;2023-08-06T09:47:42;98596.28;;;51.74;8.31
79138;BME280;68544;45.566;10.238;2023-08-06T09:50:18;98598.19;;;53.38;7.28
79138;BME280;68544;45.566;10.238;2023-08-06T09:52:44;98598.34;;;52.23;8.13
79138;BME280;68544;45.566;10.238;2023-08-06T09:55:12;98594.91;;;52.39;7.84
79138;BME280;68544;45.566;10.238;2023-08-06T09:57:40;98595.88;;;51.08;9.06
79138;BME280;68544;45.566;10.238;2023-08-06T10:00:07;98596.91;;;51.20;8.61
79138;BME280;68544;45.566;10.238;2023-08-06T10:02:35;98597.63;;;52.89;7.32
79138;BME280;68544;45.566;10.238;2023-08-06T10:05:02;98606.22;;;51.15;8.63
79138;BME280;68544;45.566;10.238;2023-08-06T10:07:29;98595.78;;;49.34;9.42
79138;BME280;68544;45.566;10.238;2023-08-06T10:09:55;98595.25;;;51.92;7.60
79138;BME280;68544;45.566;10.238;2023-08-06T10:12:22;98599.56;;;51.09;8.65
79138;BME280;68544;45.566;10.238;2023-08-06T10:14:51;98593.03;;;53.79;6.43
79138;BME280;68544;45.566;10.238;2023-08-06T10:17:20;98586.13;;;54.50;5.21
79138;BME280;68544;45.566;10.238;2023-08-06T10:19:47;98598.75;;;50.55;7.01
79138;BME280;68544;45.566;10.238;2023-08-06T10:22:14;98583.09;;;53.03;5.59
79138;BME280;68544;45.566;10.238;2023-08-06T10:24:58;98582.69;;;53.41;5.32
79138;BME280;68544;45.566;10.238;2023-08-06T10:27:33;98586.50;;;52.56;5.15
79138;BME280;68544;45.566;10.238;2023-08-06T10:30:25;98572.09;;;53.27;5.30
79138;BME280;68544;45.566;10.238;2023-08-06T10:32:59;98577.53;;;52.94;5.54
79138;BME280;68544;45.566;10.238;2023-08-06T10:38:03;98565.06;;;53.34;4.90
79138;BME280;68544;45.566;10.238;2023-08-06T10:40:29;98560.22;;;52.14;5.70
79138;BME280;68544;45.566;10.238;2023-08-06T10:42:58;98562.06;;;54.97;3.80
79138;BME280;68544;45.566;10.238;2023-08-06T10:45:23;98568.50;;;54.48;4.26
79138;BME280;68544;45.566;10.238;2023-08-06T10:47:54;98572.88;;;53.02;4.12
79138;BME280;68544;45.566;10.238;2023-08-06T10:50:20;98562.13;;;55.09;3.57
79138;BME280;68544;45.566;10.238;2023-08-06T10:52:46;98561.81;;;54.31;3.97
79138;BME280;68544;45.566;10.238;2023-08-06T10:55:22;98561.72;;;54.09;3.93
79138;BME280;68544;45.566;10.238;2023-08-06T10:57:47;98564.06;;;53.74;4.16
79138;BME280;68544;45.566;10.238;2023-08-06T11:00:13;98560.41;;;54.69;3.77
79138;BME280;68544;45.566;10.238;2023-08-06T11:02:39;98555.38;;;47.74;7.52
79138;BME280;68544;45.566;10.238;2023-08-06T11:05:08;98559.84;;;47.44;7.75
79138;BME280;68544;45.566;10.238;2023-08-06T11:07:35;98553.25;;;43.95;9.90
79138;BME280;68544;45.566;10.238;2023-08-06T11:10:02;98553.44;;;43.88;10.46
79138;BME280;68544;45.566;10.238;2023-08-06T11:12:27;98553.34;;;42.84;11.09
79138;BME280;68544;45.566;10.238;2023-08-06T11:14:53;98548.03;;;42.47;10.88
79138;BME280;68544;45.566;10.238;2023-08-06T11:17:18;98550.38;;;42.52;10.55
79138;BME280;68544;45.566;10.238;2023-08-06T11:19:44;98549.13;;;42.10;10.63
79138;BME280;68544;45.566;10.238;2023-08-06T11:22:10;98544.72;;;41.29;9.94
79138;BME280;68544;45.566;10.238;2023-08-06T11:24:37;98544.63;;;39.98;11.52
79138;BME280;68544;45.566;10.238;2023-08-06T11:27:11;98541.47;;;37.56;11.85
79138;BME280;68544;45.566;10.238;2023-08-06T11:29:43;98544.94;;;36.89;11.94
79138;BME280;68544;45.566;10.238;2023-08-06T11:32:09;98552.66;;;36.38;13.39
79138;BME280;68544;45.566;10.238;2023-08-06T11:34:36;98537.50;;;36.53;12.37
79138;BME280;68544;45.566;10.238;2023-08-06T11:37:06;98544.22;;;36.38;13.11
79138;BME280;68544;45.566;10.238;2023-08-06T11:39:35;98543.34;;;36.27;12.70
79138;BME280;68544;45.566;10.238;2023-08-06T11:42:05;98542.47;;;36.16;13.23
79138;BME280;68544;45.566;10.238;2023-08-06T11:44:32;98549.31;;;34.94;13.12
79138;BME280;68544;45.566;10.238;2023-08-06T11:47:02;98541.97;;;36.00;12.50
79138;BME280;68544;45.566;10.238;2023-08-06T11:52:16;98538.03;;;34.87;13.33
79138;BME280;68544;45.566;10.238;2023-08-06T11:54:47;98537.97;;;34.83;13.47
79138;BME280;68544;45.566;10.238;2023-08-06T11:57:13;98527.81;;;34.72;13.66
79138;BME280;68544;45.566;10.238;2023-08-06T11:59:39;98534.69;;;34.74;14.81
79138;BME280;68544;45.566;10.238;2023-08-06T12:02:05;98533.19;;;34.87;14.33
79138;BME280;68544;45.566;10.238;2023-08-06T12:05:02;98527.56;;;34.25;14.02
79138;BME280;68544;45.566;10.238;2023-08-06T12:07:31;98532.66;;;33.93;13.80
79138;BME280;68544;45.566;10.238;2023-08-06T12:09:57;98528.88;;;34.60;14.70
79138;BME280;68544;45.566;10.238;2023-08-06T12:12:23;98523.19;;;34.53;14.31
79138;BME280;68544;45.566;10.238;2023-08-06T12:14:48;98517.50;;;34.20;14.35
79138;BME280;68544;45.566;10.238;2023-08-06T12:17:14;98520.03;;;34.02;13.75
79138;BME280;68544;45.566;10.238;2023-08-06T12:19:39;98529.31;;;34.06;15.53
79138;BME280;68544;45.566;10.238;2023-08-06T12:22:04;98525.84;;;33.45;14.95
79138;BME280;68544;45.566;10.238;2023-08-06T12:24:30;98515.28;;;33.35;16.02
79138;BME280;68544;45.566;10.238;2023-08-06T12:27:00;98513.88;;;33.67;15.05
79138;BME280;68544;45.566;10.238;2023-08-06T12:29:27;98505.53;;;33.48;15.32
79138;BME280;68544;45.566;10.238;2023-08-06T12:31:53;98521.19;;;33.30;14.93
79138;BME280;68544;45.566;10.238;2023-08-06T12:34:18;98518.66;;;33.44;15.05
79138;BME280;68544;45.566;10.238;2023-08-06T12:36:44;98529.34;;;33.16;14.43
79138;BME280;68544;45.566;10.238;2023-08-06T12:39:09;98515.09;;;33.02;15.29
79138;BME280;68544;45.566;10.238;2023-08-06T12:41:35;98511.72;;;32.74;15.29
79138;BME280;68544;45.566;10.238;2023-08-06T12:44:01;98520.53;;;32.76;15.93
79138;BME280;68544;45.566;10.238;2023-08-06T12:46:26;98514.47;;;32.35;16.55
79138;BME280;68544;45.566;10.238;2023-08-06T12:48:51;98531.59;;;32.49;15.49
79138;BME280;68544;45.566;10.238;2023-08-06T12:51:17;98522.41;;;32.33;15.56
79138;BME280;68544;45.566;10.238;2023-08-06T12:53:42;98526.78;;;32.50;16.19
79138;BME280;68544;45.566;10.238;2023-08-06T12:56:08;98520.94;;;32.39;15.90